Time;durP1;ratioP1;P1;durP2;ratioP2;P2;SDS_P1;SDS_P2;PMS_P1;PMS_P2;Temp;Humidity;BMP_temperature;BMP_pressure;BME280_temperature;BME280_humidity;BME280_pressure;Samples;Min_cycle;Max_cycle;Signal;HPM_P1;HPM_P2
2023/07/24 14:52:19;;;;;;;3.67;1.90;;;;;;;;;;883675;23;20783;-67
2023/07/24 14:54:46;;;;;;;3.60;1.93;;;;;;;;;;4935794;29;20478;-68
2023/07/24 14:57:13;;;;;;;4.07;2.20;;;;;;;;;;4915362;29;20551;-67
2023/07/24 14:59:40;;;;;;;2.63;1.40;;;;;;;;;;4937504;29;20546;-67
2023/07/24 15:02:08;;;;;;;4.50;2.37;;;;;;;;;;4933563;29;20468;-68
2023/07/24 15:04:35;;;;;;;3.00;1.60;;;;;;;;;;4924316;29;20467;-67
2023/07/24 15:07:03;;;;;;;3.57;2.03;;;;;;;;;;4919813;29;20473;-68
2023/07/24 15:09:32;;;;;;;4.57;2.03;;;;;;;;;;5186715;23;21114;-68
2023/07/24 15:12:00;;;;;;;4.33;2.27;;;;;;;;;;4933167;29;20982;-67
2023/07/24 15:14:27;;;;;;;3.83;2.07;;;;;;;;;;4934104;29;20472;-66
2023/07/24 15:16:55;;;;;;;3.90;2.00;;;;;;;;;;4936441;29;20499;-67
2023/07/24 15:19:22;;;;;;;3.27;1.93;;;;;;;;;;4920988;29;20472;-67
2023/07/24 15:21:50;;;;;;;2.70;1.90;;;;;;;;;;4914880;29;20484;-65
2023/07/24 15:24:18;;;;;;;2.60;1.93;;;;;;;;;;4916969;29;20460;-68
2023/07/24 15:26:47;;;;;;;3.47;2.40;;;;;;;;;;4915107;29;20484;-67
2023/07/24 15:29:16;;;;;;;2.33;1.70;;;;;;;;;;4916013;29;20468;-66
2023/07/24 15:31:43;;;;;;;3.27;1.40;;;;;;;;;;4921735;29;20491;-68
2023/07/24 15:34:11;;;;;;;2.73;1.43;;;;;;;;;;4916678;29;20551;-68
2023/07/24 15:36:38;;;;;;;3.20;1.90;;;;;;;;;;4916093;29;21012;-68
2023/07/24 15:39:06;;;;;;;3.37;1.93;;;;;;;;;;4918638;29;20505;-67
2023/07/24 15:41:33;;;;;;;2.40;1.70;;;;;;;;;;4914479;29;20893;-67
2023/07/24 15:44:06;;;;;;;2.67;1.90;;;;;;;;;;4916324;29;20532;-69
2023/07/24 15:46:33;;;;;;;3.63;1.90;;;;;;;;;;4913188;29;20826;-68
2023/07/24 15:49:04;;;;;;;3.10;1.30;;;;;;;;;;4912317;29;20500;-68
2023/07/24 15:51:32;;;;;;;3.57;1.80;;;;;;;;;;4918153;29;20506;-66
2023/07/24 15:54:00;;;;;;;3.50;1.77;;;;;;;;;;4914042;29;20490;-67
2023/07/24 15:56:27;;;;;;;3.20;1.70;;;;;;;;;;4911455;29;20479;-68
2023/07/24 15:58:54;;;;;;;2.90;1.80;;;;;;;;;;4913752;29;20488;-67
2023/07/24 16:01:28;;;;;;;2.40;1.30;;;;;;;;;;4912982;29;20513;-68
2023/07/24 16:03:55;;;;;;;3.10;2.00;;;;;;;;;;4912163;29;20485;-68
2023/07/24 16:06:22;;;;;;;2.50;2.00;;;;;;;;;;4919876;29;20487;-68
2023/07/24 16:08:50;;;;;;;3.00;1.67;;;;;;;;;;4917665;29;20543;-68
2023/07/24 16:11:18;;;;;;;3.23;1.67;;;;;;;;;;4918069;29;20552;-70
2023/07/24 16:13:45;;;;;;;2.97;1.67;;;;;;;;;;4916788;29;20476;-69
2023/07/24 16:16:13;;;;;;;2.80;1.20;;;;;;;;;;4917442;29;20488;-70
2023/07/24 16:18:42;;;;;;;2.50;1.23;;;;;;;;;;4915393;29;20563;-71
2023/07/24 16:21:10;;;;;;;2.67;1.37;;;;;;;;;;4920274;29;20602;-68
2023/07/24 16:23:37;;;;;;;4.90;1.63;;;;;;;;;;4917536;29;20480;-69
2023/07/24 16:26:04;;;;;;;4.63;2.57;;;;;;;;;;4916376;29;20476;-69
2023/07/24 16:28:32;;;;;;;4.03;1.93;;;;;;;;;;4916051;29;20512;-69
2023/07/24 16:31:00;;;;;;;2.43;1.63;;;;;;;;;;4912526;29;20484;-69
2023/07/24 16:33:29;;;;;;;2.73;1.50;;;;;;;;;;4912828;29;20524;-70
2023/07/24 16:35:59;;;;;;;3.03;1.50;;;;;;;;;;4916393;29;20598;-71
2023/07/24 16:38:27;;;;;;;4.63;1.63;;;;;;;;;;4913539;29;20492;-70
2023/07/24 16:40:55;;;;;;;2.43;1.40;;;;;;;;;;4913890;29;20494;-70
2023/07/24 16:43:22;;;;;;;3.33;1.50;;;;;;;;;;4911969;29;20482;-70
2023/07/24 16:45:51;;;;;;;4.30;2.20;;;;;;;;;;4916910;29;20482;-72
2023/07/24 16:48:18;;;;;;;2.27;1.57;;;;;;;;;;4912635;29;20476;-71
2023/07/24 16:50:47;;;;;;;3.97;1.63;;;;;;;;;;4917068;29;20527;-70
2023/07/24 16:53:16;;;;;;;2.67;1.60;;;;;;;;;;4917254;29;20532;-70
2023/07/24 16:55:43;;;;;;;2.87;1.57;;;;;;;;;;4915394;29;20606;-70
2023/07/24 16:58:11;;;;;;;3.27;1.73;;;;;;;;;;4874268;29;20488;-70
2023/07/24 17:00:39;;;;;;;2.93;1.57;;;;;;;;;;4909002;29;20491;-70
2023/07/24 17:03:07;;;;;;;3.30;1.77;;;;;;;;;;4918782;29;20563;-70
2023/07/24 17:05:36;;;;;;;3.20;1.70;;;;;;;;;;4915311;29;20492;-70
2023/07/24 17:08:04;;;;;;;3.03;1.73;;;;;;;;;;4914961;29;20480;-71
2023/07/24 17:10:41;;;;;;;2.67;1.40;;;;;;;;;;4915455;29;20994;-71
2023/07/24 17:13:09;;;;;;;3.57;1.37;;;;;;;;;;4911391;29;20841;-71
2023/07/24 17:15:38;;;;;;;2.70;1.50;;;;;;;;;;4914141;29;20511;-68
2023/07/24 17:18:05;;;;;;;4.43;1.60;;;;;;;;;;4915964;29;20491;-70
2023/07/24 17:20:33;;;;;;;3.03;1.40;;;;;;;;;;4914759;29;20520;-70
2023/07/24 17:23:02;;;;;;;1.90;1.20;;;;;;;;;;4916744;29;20461;-71
2023/07/24 17:25:29;;;;;;;2.27;1.40;;;;;;;;;;4914093;29;20805;-70
2023/07/24 17:27:58;;;;;;;2.33;1.37;;;;;;;;;;4913766;29;20894;-70
2023/07/24 17:30:25;;;;;;;2.20;1.10;;;;;;;;;;4912124;29;20588;-70
2023/07/24 17:32:53;;;;;;;2.70;1.30;;;;;;;;;;4915372;29;20535;-69
2023/07/24 17:37:50;;;;;;;2.33;1.03;;;;;;;;;;4950750;23;20652;-69
2023/07/24 17:40:18;;;;;;;2.83;1.50;;;;;;;;;;4915646;29;20521;-68
2023/07/24 17:42:45;;;;;;;2.73;1.00;;;;;;;;;;4913403;29;20932;-68
2023/07/24 17:45:14;;;;;;;2.70;1.00;;;;;;;;;;4915992;29;20472;-69
2023/07/24 17:47:42;;;;;;;2.13;0.90;;;;;;;;;;4911409;29;20480;-69
2023/07/24 17:50:09;;;;;;;2.33;1.20;;;;;;;;;;4911689;29;20476;-69
2023/07/24 17:52:37;;;;;;;2.30;1.60;;;;;;;;;;4994289;23;20503;-73
2023/07/24 17:55:05;;;;;;;2.17;1.03;;;;;;;;;;4932255;29;20463;-73
2023/07/24 17:57:33;;;;;;;1.50;0.90;;;;;;;;;;4931528;29;20480;-73
2023/07/24 18:00:00;;;;;;;2.90;1.20;;;;;;;;;;4932743;29;20553;-72
2023/07/24 18:02:33;;;;;;;2.13;1.30;;;;;;;;;;4934421;29;20487;-71
2023/07/24 18:05:01;;;;;;;3.27;1.30;;;;;;;;;;4933822;29;20479;-73
2023/07/24 18:10:13;;;;;;;1.83;0.93;;;;;;;;;;4943349;29;20840;-71
2023/07/24 18:12:41;;;;;;;2.13;1.00;;;;;;;;;;4940502;29;20479;-71
2023/07/24 18:15:09;;;;;;;1.70;0.90;;;;;;;;;;4903441;29;20905;-73
2023/07/24 18:17:39;;;;;;;1.87;1.03;;;;;;;;;;4935138;29;20467;-73
2023/07/24 18:20:08;;;;;;;2.93;1.10;;;;;;;;;;4936817;29;20497;-73
2023/07/24 18:22:36;;;;;;;2.03;1.27;;;;;;;;;;4936539;29;20551;-73
2023/07/24 18:25:03;;;;;;;1.93;1.17;;;;;;;;;;4935052;29;20468;-73
2023/07/24 18:27:30;;;;;;;3.13;1.40;;;;;;;;;;4934703;29;20515;-73
2023/07/24 18:29:58;;;;;;;4.03;1.47;;;;;;;;;;4934520;29;20523;-73
2023/07/24 18:32:25;;;;;;;4.77;1.67;;;;;;;;;;4935108;29;20493;-73
2023/07/24 18:34:55;;;;;;;3.47;1.23;;;;;;;;;;4935849;29;20471;-72
2023/07/24 18:37:22;;;;;;;2.20;1.20;;;;;;;;;;4939878;29;21044;-73
2023/07/24 18:39:50;;;;;;;1.90;0.93;;;;;;;;;;4939217;29;20506;-73
2023/07/24 18:42:17;;;;;;;2.00;1.10;;;;;;;;;;4935740;29;20546;-71
2023/07/24 18:44:44;;;;;;;1.47;0.80;;;;;;;;;;4901601;29;20598;-72
2023/07/24 18:47:13;;;;;;;5.60;1.50;;;;;;;;;;4936782;29;20843;-73
2023/07/24 18:49:40;;;;;;;4.83;1.60;;;;;;;;;;4931958;29;20837;-72
2023/07/24 18:52:09;;;;;;;1.97;1.00;;;;;;;;;;4931612;29;20488;-72
2023/07/24 18:54:36;;;;;;;1.90;1.00;;;;;;;;;;4929886;29;20486;-72
2023/07/24 18:57:04;;;;;;;1.70;0.83;;;;;;;;;;4937540;29;20462;-73
2023/07/24 18:59:32;;;;;;;2.13;1.00;;;;;;;;;;4932536;29;20528;-73
2023/07/24 19:01:59;;;;;;;1.70;0.80;;;;;;;;;;4936788;29;20471;-73
2023/07/24 19:04:27;;;;;;;2.73;1.50;;;;;;;;;;4935802;29;20953;-72
2023/07/24 19:06:54;;;;;;;1.87;0.80;;;;;;;;;;4933549;29;20511;-72
2023/07/24 19:09:26;;;;;;;3.40;1.57;;;;;;;;;;4934803;29;21009;-73
2023/07/24 19:11:54;;;;;;;1.63;0.80;;;;;;;;;;4936573;29;20479;-73
2023/07/24 19:14:21;;;;;;;2.20;1.10;;;;;;;;;;4937336;29;20452;-72
2023/07/24 19:16:49;;;;;;;2.00;0.93;;;;;;;;;;4933411;29;20831;-71
2023/07/24 19:19:16;;;;;;;2.70;1.20;;;;;;;;;;4933363;29;20468;-73
2023/07/24 19:21:45;;;;;;;2.73;1.23;;;;;;;;;;4932640;29;20455;-73
2023/07/24 19:24:13;;;;;;;2.03;0.70;;;;;;;;;;4935280;29;20511;-72
2023/07/24 19:26:42;;;;;;;1.80;0.80;;;;;;;;;;4934478;29;20918;-72
2023/07/24 19:29:10;;;;;;;1.70;0.90;;;;;;;;;;4936169;29;20472;-73
2023/07/24 19:31:38;;;;;;;3.20;1.30;;;;;;;;;;4934616;29;20479;-73
2023/07/24 19:34:05;;;;;;;2.03;1.20;;;;;;;;;;4933672;29;20476;-72
2023/07/24 19:36:34;;;;;;;2.17;1.40;;;;;;;;;;4934738;29;20467;-75
2023/07/24 19:39:05;;;;;;;4.40;1.57;;;;;;;;;;4936483;29;20486;-73
2023/07/24 19:41:33;;;;;;;1.63;0.93;;;;;;;;;;4930652;29;20565;-75
2023/07/24 19:44:02;;;;;;;1.40;0.73;;;;;;;;;;4935149;29;20480;-75
2023/07/24 19:46:30;;;;;;;3.00;1.13;;;;;;;;;;4933863;29;20523;-75
2023/07/24 19:49:00;;;;;;;2.83;1.23;;;;;;;;;;4935973;29;20478;-73
2023/07/24 19:51:27;;;;;;;2.57;1.20;;;;;;;;;;4934531;29;20991;-74
2023/07/24 19:53:55;;;;;;;2.60;0.90;;;;;;;;;;4934808;29;20511;-75
2023/07/24 19:56:22;;;;;;;2.30;1.40;;;;;;;;;;4936591;29;20961;-75
2023/07/24 19:58:50;;;;;;;2.17;1.43;;;;;;;;;;4935143;29;20491;-77
2023/07/24 20:01:21;;;;;;;2.30;1.23;;;;;;;;;;4932554;29;20467;-74
2023/07/24 20:03:49;;;;;;;2.73;0.83;;;;;;;;;;4937484;29;20483;-74
2023/07/24 20:06:17;;;;;;;2.23;1.00;;;;;;;;;;4935606;29;20476;-75
2023/07/24 20:08:44;;;;;;;3.57;1.10;;;;;;;;;;4935706;29;20492;-74
2023/07/24 20:11:10;;;;;;;1.83;0.87;;;;;;;;;;4937421;29;20443;-75
2023/07/24 20:13:39;;;;;;;1.80;1.00;;;;;;;;;;4936988;29;20965;-74
2023/07/24 20:16:07;;;;;;;2.20;1.13;;;;;;;;;;4939594;29;20572;-74
2023/07/24 20:18:37;;;;;;;2.20;1.20;;;;;;;;;;4941475;29;20542;-74
2023/07/24 20:21:05;;;;;;;2.30;0.80;;;;;;;;;;4937597;29;20522;-75
2023/07/24 20:23:32;;;;;;;3.10;1.13;;;;;;;;;;4936924;29;20464;-74
2023/07/24 20:25:59;;;;;;;1.70;0.80;;;;;;;;;;4919570;29;20495;-73
2023/07/24 20:28:27;;;;;;;2.10;1.27;;;;;;;;;;4935326;29;20510;-75
2023/07/24 20:30:54;;;;;;;1.80;1.00;;;;;;;;;;4936899;29;20502;-75
2023/07/24 20:33:23;;;;;;;2.00;0.83;;;;;;;;;;4993245;23;20527;-74
2023/07/24 20:35:52;;;;;;;2.90;0.93;;;;;;;;;;4956938;28;21023;-75
2023/07/24 20:38:23;;;;;;;2.77;0.80;;;;;;;;;;4951380;28;20467;-74
2023/07/24 20:40:51;;;;;;;2.53;1.30;;;;;;;;;;4933517;29;20456;-75
2023/07/24 20:43:20;;;;;;;2.37;1.00;;;;;;;;;;4931728;29;21108;-74
2023/07/24 20:45:52;;;;;;;4.83;1.20;;;;;;;;;;4935734;29;20456;-75
2023/07/24 20:48:20;;;;;;;1.83;0.90;;;;;;;;;;4935226;29;20831;-74
